Dickinson's Hourly Summary for Saturday, May 12, 2018
Hour Temp
(f)
RH
(%)
Solar Rad.
(MJ/m2)
Rainfall
(in)
Wind
(mph)
5/12/2018 12:00 AM 77 82 0 0 5.36
5/12/2018 1:00 AM 76 82 0 0 5.12
5/12/2018 2:00 AM 76 83 0 0 6
5/12/2018 3:00 AM 76 83 0 0 5.54
5/12/2018 4:00 AM 75 84 0 0 3.19
5/12/2018 5:00 AM 75 87 0 0 2.78
5/12/2018 6:00 AM 75 86 0 0 2.64
5/12/2018 7:00 AM 75 88 0.04 0 0.85
5/12/2018 8:00 AM 75 83 0.35 0 3.34
5/12/2018 9:00 AM 78 76 0.78 0 5.57
5/12/2018 10:00 AM 79 72 0.79 0 6.68
5/12/2018 11:00 AM 80 68 2.12 0 7.62
5/12/2018 12:00 PM 82 65 2.31 0 7.19
5/12/2018 1:00 PM 83 63 3.1 0 8.15
5/12/2018 2:00 PM 83 61 3.08 0 8.35
5/12/2018 3:00 PM 83 61 2.68 0 8.22
5/12/2018 4:00 PM 83 61 2.48 0 7.89
5/12/2018 5:00 PM 83 61 1.92 0 7.79
5/12/2018 6:00 PM 82 67 1.15 0 7.27
5/12/2018 7:00 PM 81 69 0.87 0 7.05
5/12/2018 8:00 PM 79 74 0.21 0 5.76
5/12/2018 9:00 PM 78 81 0 0 5.28
5/12/2018 10:00 PM 77 83 0 0 4.25
5/12/2018 11:00 PM 77 84 0 0 4.01
Data Summary 78 75 21.88 0.00 5.66